Detall de PIREP

Printer-friendly versionPDF version

[2014/12/08 08:58:00]
Flight IATA:CT3316
Pilot Number:012
Company ICAO:CAT
Aircraft Type:MD11/E
PAX:0
Aircraft Registration:CARGO
Departing Airport: LEZG
Destination Airport: OSDI
Alternate Airport:OLBA
Online: VATSIM
Route:PONEN R870 SEROX UN870 BCN UN859 GENIO UM134 ANB UA411 MORJA UM978 KEMIR UA411 TUC UM978 ADRIL UR781 DIDON UM978 DOBIX UN4 EVIRA UM978 TOSKA UR78 TOBAL UM978 LUBES UR78 RUBIK UM978 LCA UR19 KUKLA UR219 KAD
Flight Level:F370
No Slew and time accel
No pause
Crash detect
Detect pilot in Cockpit between each 30 and 45 minutes
08:58 Zero fuel Weight: 356635 Lbs, Fuel Weight: 84986 Lbs
08:58 VATSIM:LEZG 080830Z 30013KT 9999 FEW030 09/05 Q1027
08:58 VATSIM:OSDI 080800Z 07004KT CAVOK 16/09 Q1019
08:58 Parking Brakes off
09:03 Take-off
09:03 Take off Weight: 440621 Lbs
09:03 Wind: 300º @ 013 Knots Heading: 300º
09:03 POS N41º 39´ 44´´ W001º 01´ 27´´
09:03 Gear Up: 196 Knots
09:03 Flaps:3 at 196 Knots
09:04 Flaps:2 at 196 Knots
09:04 Flaps:3 at 197 Knots
09:04 Flaps:2 at 198 Knots
09:04 Flaps:1 at 200 Knots
09:04 Flaps:0 at 223 Knots
09:18 Wind:294º@056 Knots Heading: 088º Ground Speed: 525 Knots Altitude 34330 ft
09:33 Wind:296º@059 Knots Heading: 170º Ground Speed: 508 Knots Altitude 35314 ft
09:48 Wind:292º@073 Knots Heading: 129º Ground Speed: 543 Knots Altitude 35347 ft
10:03 Wind:309º@071 Knots Heading: 108º Ground Speed: 540 Knots Altitude 35328 ft
10:18 Wind:313º@070 Knots Heading: 081º Ground Speed: 524 Knots Altitude 35209 ft
10:33 Wind:319º@056 Knots Heading: 095º Ground Speed: 523 Knots Altitude 35068 ft
10:48 Wind:317º@052 Knots Heading: 090º Ground Speed: 516 Knots Altitude 34927 ft
11:03 Wind:299º@047 Knots Heading: 093º Ground Speed: 521 Knots Altitude 34908 ft
11:10 TOC
11:10 Fuel Weight: 46467Lb
11:18 Wind:243º@017 Knots Heading: 094º Ground Speed: 489 Knots Altitude 36761 ft
11:33 Wind:253º@033 Knots Heading: 097º Ground Speed: 505 Knots Altitude 36791 ft
11:48 Wind:224º@034 Knots Heading: 095º Ground Speed: 495 Knots Altitude 36748 ft
12:03 Wind:234º@059 Knots Heading: 093º Ground Speed: 523 Knots Altitude 36814 ft
12:18 Wind:234º@063 Knots Heading: 094º Ground Speed: 525 Knots Altitude 36870 ft
12:33 Wind:228º@061 Knots Heading: 094º Ground Speed: 522 Knots Altitude 36991 ft
12:48 Wind:231º@061 Knots Heading: 128º Ground Speed: 495 Knots Altitude 36988 ft
12:48 TOD
12:48 Fuel Weight: 24063 Lb
13:02 Flaps:1 at 262 Knots
13:03 Wind:178º@012 Knots Heading: 111º Ground Speed: 282 Knots Altitude 9553 ft
13:05 Flaps:2 at 249 Knots
13:05 Flaps:3 at 248 Knots
13:07 Flaps:4 at 196 Knots
13:07 Flaps:3 at 194 Knots
13:07 Flaps:4 at 193 Knots
13:07 Flaps:5at 190 Knots
13:07 Flaps:6 at 189 Knots
13:08 Gear Down: 183 Knots
13:08 Flaps:7 at 177 Knots
13:11 TouchDown:Rate -377 ft/min Speed: 152 Knots
13:11 VATSIM:OSDI 081300Z 03005KT CAVOK 20/02 Q1016
13:11 Land
13:11 Wind:025º@005 Knots
13:11 Heading: 230º
13:11 Flight Duration: 04:08
13:11 Landing Weight: 376978 Lbs
13:11 POS N33º 25´ 26´´ E036º 30´ 59´´
13:17 Parking brakes on
13:17 Block to Block Duration: 04:19
13:17 Final Fuel: 19795 Lbls
13:17 Spent Fuel: 65191 Lbls
13:17 Flight Length: 2052 NM
13:17 TOD Land Length: 132 NM

Exportar CSV

Powered by Drupal - Modified by Danger4k